Terminal Aerodrome Forecast
Issued by NWS Wakefield, VA

Home | Current Version | Previous Version | Text Only | Print | Product List | Glossary On
Versions: 1 2 3 4 5 6 7 8 9 10 11 12 13 14 15 16 17 18 19 20
000
FTUS41 KAKQ 210121 AAB
TAFRIC
TAF AMD
KRIC 210121Z 2101/2124 00000KT 1SM BR OVC002
      TEMPO 2101/2104 1/2SM -DZ FG
     FM210400 00000KT 1/2SM -DZ FG OVC002
     FM211500 VRB03KT P6SM OVC003
     FM211700 17004KT P6SM OVC006
     FM212000 17004KT P6SM OVC005=

USA.gov is the U.S. government's official web portal to all federal, state and local government web resources and services.